Time;durP1;ratioP1;P1;durP2;ratioP2;P2;SDS_P1;SDS_P2;PMS_P1;PMS_P2;Temp;Humidity;BMP_temperature;BMP_pressure;BME280_temperature;BME280_humidity;BME280_pressure;Samples;Min_cycle;Max_cycle;Signal;HPM_P1;HPM_P2
2022/08/28 00:00:15;;;;;;;9.85;5.00;;;13.40;99.90;;;;;;5101131;28;20046;-68
2022/08/28 00:02:41;;;;;;;10.30;5.82;;;13.40;99.90;;;;;;5109745;28;20032;-69
2022/08/28 00:05:08;;;;;;;14.20;6.10;;;13.30;99.90;;;;;;5112218;27;20058;-69
2022/08/28 00:07:34;;;;;;;12.38;5.38;;;13.30;99.90;;;;;;5107514;28;20047;-69
2022/08/28 00:10:00;;;;;;;8.90;4.90;;;13.20;99.90;;;;;;5110202;28;20046;-70
2022/08/28 00:12:26;;;;;;;13.13;5.22;;;13.20;99.90;;;;;;5109469;28;20346;-68
2022/08/28 00:14:51;;;;;;;16.27;5.05;;;13.20;99.90;;;;;;5111536;28;20050;-68
2022/08/28 00:17:17;;;;;;;12.93;5.47;;;13.10;99.90;;;;;;5106916;28;20179;-68
2022/08/28 00:19:43;;;;;;;10.02;5.47;;;13.10;99.90;;;;;;5106759;28;20036;-68
2022/08/28 00:22:09;;;;;;;11.25;5.63;;;13.10;99.90;;;;;;5109136;28;20040;-68
2022/08/28 00:24:35;;;;;;;11.63;5.20;;;13.00;99.90;;;;;;5108961;28;20483;-68
2022/08/28 00:29:46;;;;;;;9.82;5.05;;;13.00;99.90;;;;;;5108806;28;20119;-69
2022/08/28 00:32:12;;;;;;;10.98;5.00;;;12.90;99.90;;;;;;5107976;28;20534;-69
2022/08/28 00:34:38;;;;;;;13.80;5.45;;;12.90;99.90;;;;;;5091192;28;20505;-69
2022/08/28 00:37:04;;;;;;;10.98;5.20;;;12.90;99.90;;;;;;5109655;28;20043;-68
2022/08/28 00:39:30;;;;;;;9.80;4.60;;;12.90;99.90;;;;;;5110161;28;20075;-68
2022/08/28 00:41:56;;;;;;;12.57;4.97;;;12.90;99.90;;;;;;5114755;28;20038;-69
2022/08/28 00:44:24;;;;;;;11.43;5.57;;;12.90;99.90;;;;;;5108279;28;20039;-69
2022/08/28 00:46:52;;;;;;;13.63;5.00;;;12.80;99.90;;;;;;5110954;28;20040;-68
2022/08/28 00:49:34;;;;;;;8.90;4.80;;;12.80;99.90;;;;;;5092724;28;20063;-69
2022/08/28 00:52:10;;;;;;;12.07;5.35;;;12.80;99.90;;;;;;5108139;28;20046;-69
2022/08/28 00:54:50;;;;;;;9.95;5.45;;;12.80;99.90;;;;;;5104201;28;20477;-69
2022/08/28 00:57:25;;;;;;;11.23;5.10;;;12.70;99.90;;;;;;5111139;28;20071;-69
2022/08/28 00:59:51;;;;;;;11.07;4.95;;;12.70;99.90;;;;;;5105695;28;20044;-69
2022/08/28 01:02:16;;;;;;;9.35;4.75;;;12.70;99.90;;;;;;5106082;28;20042;-70
2022/08/28 01:04:43;;;;;;;10.63;4.95;;;12.70;99.90;;;;;;5110954;28;20058;-71
2022/08/28 01:07:13;;;;;;;10.32;5.00;;;12.60;99.90;;;;;;5112708;28;20043;-72
2022/08/28 01:09:42;;;;;;;10.35;4.93;;;12.60;99.90;;;;;;5079571;28;20112;-72
2022/08/28 01:12:19;;;;;;;9.02;4.90;;;12.60;99.90;;;;;;5111037;28;20105;-73
2022/08/28 01:14:47;;;;;;;11.23;4.82;;;12.60;99.90;;;;;;5114420;27;20488;-73
2022/08/28 01:17:14;;;;;;;;;;;12.60;99.90;;;;;;5111866;28;20477;-72
2022/08/28 01:19:47;;;;;;;7.65;5.20;;;12.50;99.90;;;;;;5113465;28;19926;-73
2022/08/28 01:22:47;;;;;;;9.77;4.55;;;12.50;99.90;;;;;;5110593;27;20036;-72
2022/08/28 01:25:17;;;;;;;10.43;4.85;;;12.40;99.90;;;;;;5105302;28;20490;-71
2022/08/28 01:27:42;;;;;;;9.65;4.60;;;12.40;99.90;;;;;;5111000;28;20432;-72
2022/08/28 01:30:11;;;;;;;11.85;5.45;;;12.40;99.90;;;;;;5114681;28;20043;-71
2022/08/28 01:32:44;;;;;;;9.38;5.03;;;12.40;99.90;;;;;;5110605;27;20391;-71
2022/08/28 01:35:14;;;;;;;9.57;5.35;;;12.40;99.90;;;;;;5109078;27;20440;-71
2022/08/28 01:37:40;;;;;;;12.57;5.18;;;12.40;99.90;;;;;;5110661;28;20418;-69
2022/08/28 01:40:11;;;;;;;11.40;5.55;;;12.40;99.90;;;;;;5078678;28;20043;-70
2022/08/28 01:42:41;;;;;;;11.13;4.95;;;12.40;99.90;;;;;;5114483;28;20130;-70
2022/08/28 01:45:09;;;;;;;10.02;5.20;;;12.30;99.90;;;;;;5112131;28;20074;-70
2022/08/28 01:47:37;;;;;;;10.30;5.53;;;12.40;99.90;;;;;;5109093;28;20145;-70
2022/08/28 01:50:05;;;;;;;8.80;5.07;;;12.40;99.90;;;;;;5101733;28;20043;-69
2022/08/28 01:52:31;;;;;;;10.40;5.20;;;12.30;99.90;;;;;;5092677;28;20383;-71
2022/08/28 01:54:56;;;;;;;11.95;5.10;;;12.30;99.90;;;;;;5114852;28;20047;-70
2022/08/28 01:57:22;;;;;;;10.43;5.40;;;12.30;99.90;;;;;;5115075;28;20485;-70
2022/08/28 01:59:49;;;;;;;11.75;5.45;;;12.20;99.90;;;;;;5093824;28;20071;-69
2022/08/28 02:02:15;;;;;;;9.40;4.97;;;12.20;99.90;;;;;;5106446;27;20667;-69
2022/08/28 02:04:41;;;;;;;9.15;4.95;;;12.20;99.90;;;;;;5112552;28;20098;-70
2022/08/28 02:07:06;;;;;;;14.90;5.05;;;12.20;99.90;;;;;;5114265;28;20092;-70
2022/08/28 02:09:32;;;;;;;9.50;5.00;;;12.20;99.90;;;;;;5111781;28;20387;-69
2022/08/28 02:11:58;;;;;;;10.10;5.03;;;12.20;99.90;;;;;;5109989;28;20040;-70
2022/08/28 02:14:23;;;;;;;8.07;4.75;;;12.10;99.90;;;;;;5113833;28;20035;-70
2022/08/28 02:16:49;;;;;;;9.52;5.07;;;12.10;99.90;;;;;;5114226;28;20043;-70
2022/08/28 02:19:15;;;;;;;8.85;4.70;;;12.10;99.90;;;;;;5106392;27;20039;-68
2022/08/28 02:21:41;;;;;;;11.90;5.50;;;12.10;99.90;;;;;;5112025;27;20112;-69
2022/08/28 02:24:07;;;;;;;7.22;4.50;;;12.10;99.90;;;;;;5106729;27;20389;-70
2022/08/28 02:26:33;;;;;;;9.23;5.43;;;12.10;99.90;;;;;;5113643;27;20446;-69
2022/08/28 02:29:00;;;;;;;8.77;5.10;;;12.00;99.90;;;;;;5112280;27;20066;-70
2022/08/28 02:31:26;;;;;;;11.70;4.90;;;12.00;99.90;;;;;;5112872;28;20129;-70
2022/08/28 02:33:52;;;;;;;9.60;4.75;;;12.00;99.90;;;;;;5106119;27;20043;-71
2022/08/28 02:36:17;;;;;;;9.25;4.95;;;12.00;99.90;;;;;;5110417;27;20379;-70
2022/08/28 02:38:44;;;;;;;9.30;4.20;;;12.00;99.90;;;;;;5111106;28;20036;-70
2022/08/28 02:41:11;;;;;;;8.93;5.40;;;12.00;99.90;;;;;;5110567;28;20047;-69
2022/08/28 02:43:37;;;;;;;9.65;4.50;;;12.00;99.90;;;;;;5109902;28;20079;-70
2022/08/28 02:46:04;;;;;;;11.88;4.50;;;12.00;99.90;;;;;;5112597;28;20059;-69
2022/08/28 02:48:32;;;;;;;12.27;5.23;;;11.90;99.90;;;;;;5109989;28;20078;-68
2022/08/28 02:51:07;;;;;;;10.43;4.60;;;11.90;99.90;;;;;;5109946;28;20039;-71
2022/08/28 02:53:33;;;;;;;10.07;5.00;;;11.90;99.90;;;;;;5109209;27;20048;-73
2022/08/28 02:55:59;;;;;;;10.43;4.53;;;11.90;99.90;;;;;;5112506;28;20116;-70
2022/08/28 02:58:31;;;;;;;8.13;4.25;;;11.90;99.90;;;;;;5112369;28;20044;-70
2022/08/28 03:00:57;;;;;;;10.98;4.85;;;11.90;99.90;;;;;;5091757;28;20044;-71
2022/08/28 03:03:22;;;;;;;11.77;5.07;;;11.90;99.90;;;;;;5108568;28;20051;-71
2022/08/28 03:05:48;;;;;;;8.90;4.85;;;11.90;99.90;;;;;;5109406;28;20032;-70
2022/08/28 03:08:14;;;;;;;10.38;4.88;;;11.80;99.90;;;;;;5112520;28;20044;-70
2022/08/28 03:10:40;;;;;;;10.65;4.60;;;11.80;99.90;;;;;;5107762;28;20150;-70
2022/08/28 03:13:06;;;;;;;10.30;5.15;;;11.80;99.90;;;;;;5087194;28;20055;-70
2022/08/28 03:15:32;;;;;;;12.38;4.85;;;11.80;99.90;;;;;;5108109;27;20048;-71
2022/08/28 03:17:57;;;;;;;12.02;5.07;;;11.80;99.90;;;;;;5112358;28;20043;-72
2022/08/28 03:20:23;;;;;;;9.18;4.80;;;11.70;99.90;;;;;;5108557;28;20403;-70
2022/08/28 03:25:33;;;;;;;9.80;4.55;;;11.70;99.90;;;;;;5111330;27;20044;-70
2022/08/28 03:27:59;;;;;;;8.95;4.68;;;11.70;99.90;;;;;;5110661;28;20047;-70
2022/08/28 03:30:25;;;;;;;10.05;4.85;;;11.70;99.90;;;;;;5109403;28;20412;-71
2022/08/28 03:32:50;;;;;;;13.50;5.20;;;11.70;99.90;;;;;;5110208;28;20430;-71
2022/08/28 03:35:16;;;;;;;11.98;5.03;;;11.70;99.90;;;;;;5108974;28;20514;-70
2022/08/28 03:37:42;;;;;;;14.95;5.07;;;11.70;99.90;;;;;;5111472;28;20043;-71
2022/08/28 03:40:08;;;;;;;9.07;4.70;;;11.70;99.90;;;;;;5101338;28;20044;-72
2022/08/28 03:42:34;;;;;;;9.65;5.00;;;11.70;99.90;;;;;;5091591;28;20095;-70
2022/08/28 03:45:00;;;;;;;8.82;5.10;;;11.70;99.90;;;;;;5088267;28;20128;-70
2022/08/28 03:47:28;;;;;;;11.50;5.57;;;11.70;99.90;;;;;;5091043;28;20036;-70
2022/08/28 03:49:55;;;;;;;15.00;4.82;;;11.70;99.90;;;;;;5086857;28;20044;-70
2022/08/28 03:52:21;;;;;;;10.82;4.93;;;11.70;99.90;;;;;;5081672;28;20047;-70
2022/08/28 03:54:47;;;;;;;11.50;5.57;;;11.70;99.90;;;;;;5095382;28;20052;-71
2022/08/28 03:57:17;;;;;;;10.77;4.38;;;11.60;99.90;;;;;;5091095;28;20040;-70
2022/08/28 03:59:43;;;;;;;10.57;4.50;;;11.60;99.90;;;;;;5095526;28;20102;-68
2022/08/28 04:02:08;;;;;;;10.13;4.90;;;11.60;99.90;;;;;;5088714;28;20178;-71
2022/08/28 04:04:34;;;;;;;10.27;4.72;;;11.60;99.90;;;;;;5088861;28;20051;-72
2022/08/28 04:07:00;;;;;;;7.43;4.40;;;11.60;99.90;;;;;;5097448;28;20124;-70
2022/08/28 04:09:25;;;;;;;9.27;4.63;;;11.60;99.90;;;;;;5088165;28;20479;-71
2022/08/28 04:11:52;;;;;;;9.50;4.78;;;11.60;99.90;;;;;;5101492;28;20188;-71
2022/08/28 04:14:18;;;;;;;10.48;4.38;;;11.60;99.90;;;;;;5091448;28;20085;-71
2022/08/28 04:16:43;;;;;;;10.23;4.75;;;11.50;99.90;;;;;;5091660;28;20082;-71
2022/08/28 04:19:09;;;;;;;8.80;4.10;;;11.50;99.90;;;;;;5088374;28;20082;-72
2022/08/28 04:21:34;;;;;;;7.60;4.35;;;11.50;99.90;;;;;;5092274;28;20050;-71
2022/08/28 04:24:00;;;;;;;11.13;4.50;;;11.50;99.90;;;;;;5088014;28;20040;-71
2022/08/28 04:26:26;;;;;;;8.95;4.50;;;11.50;99.90;;;;;;5089225;28;20115;-70
2022/08/28 04:28:54;;;;;;;9.23;3.97;;;11.50;99.90;;;;;;5082346;28;20120;-71
2022/08/28 04:31:19;;;;;;;7.30;4.28;;;11.40;99.90;;;;;;5090939;28;20094;-71
2022/08/28 04:33:45;;;;;;;9.85;5.03;;;11.50;99.90;;;;;;5092006;28;20040;-70
2022/08/28 04:36:13;;;;;;;9.52;4.25;;;11.40;99.90;;;;;;5090222;28;20432;-71
2022/08/28 04:38:39;;;;;;;;;;;11.40;99.90;;;;;;5094521;28;20068;-71
2022/08/28 04:41:07;;;;;;;8.98;3.97;;;11.40;99.90;;;;;;5102326;28;19958;-71
2022/08/28 04:43:33;;;;;;;7.15;4.10;;;11.30;99.90;;;;;;5111518;28;20092;-71
2022/08/28 04:46:07;;;;;;;9.32;4.60;;;11.40;99.90;;;;;;5109866;28;20424;-71
2022/08/28 04:48:33;;;;;;;9.90;4.53;;;11.40;99.90;;;;;;5110482;28;20035;-70
2022/08/28 04:50:59;;;;;;;6.40;4.15;;;11.40;99.90;;;;;;5109715;28;20089;-70
2022/08/28 04:53:24;;;;;;;8.57;4.85;;;11.40;99.90;;;;;;5111594;28;20031;-70
2022/08/28 04:55:51;;;;;;;9.63;4.28;;;11.40;99.90;;;;;;5110659;28;20043;-70
2022/08/28 04:58:19;;;;;;;7.85;4.85;;;11.40;99.90;;;;;;5090051;28;20042;-70
2022/08/28 05:00:47;;;;;;;8.73;4.85;;;11.50;99.90;;;;;;5106104;28;20052;-70
2022/08/28 05:03:13;;;;;;;;;;;11.50;99.90;;;;;;5112243;28;20040;-70
2022/08/28 05:05:47;;;;;;;7.72;4.32;;;11.50;99.90;;;;;;5109220;28;20124;-70
2022/08/28 05:08:14;;;;;;;9.05;4.65;;;11.60;99.90;;;;;;5109853;28;20048;-70
2022/08/28 05:10:41;;;;;;;11.70;5.03;;;11.60;99.90;;;;;;5106589;28;20390;-70
2022/08/28 05:13:14;;;;;;;8.55;4.22;;;11.60;99.90;;;;;;5105321;28;20036;-70
2022/08/28 05:15:41;;;;;;;9.63;4.30;;;11.60;99.90;;;;;;5104504;28;20051;-71
2022/08/28 05:18:07;;;;;;;8.13;4.55;;;11.70;99.90;;;;;;5104709;28;20043;-69
2022/08/28 05:20:35;;;;;;;9.32;4.32;;;11.70;99.90;;;;;;5109673;28;20035;-68
2022/08/28 05:23:01;;;;;;;11.57;4.18;;;11.80;99.90;;;;;;5110405;28;20039;-68
2022/08/28 05:25:26;;;;;;;7.75;4.03;;;11.80;99.90;;;;;;5091728;28;20509;-68
2022/08/28 05:27:52;;;;;;;13.48;4.40;;;11.90;99.90;;;;;;5108762;28;20114;-70
2022/08/28 05:30:17;;;;;;;9.88;4.38;;;12.00;99.90;;;;;;5110864;28;20050;-70
2022/08/28 05:32:43;;;;;;;11.25;4.75;;;12.00;99.90;;;;;;5109770;28;20156;-71
2022/08/28 05:35:09;;;;;;;14.05;4.60;;;12.20;99.90;;;;;;5105496;28;20047;-69
2022/08/28 05:37:34;;;;;;;7.97;4.30;;;12.20;99.90;;;;;;5106719;28;20093;-70
2022/08/28 05:40:00;;;;;;;8.35;3.83;;;12.30;99.90;;;;;;5108789;28;20040;-70
2022/08/28 05:42:26;;;;;;;7.10;3.80;;;12.40;99.90;;;;;;5109582;28;20044;-70
2022/08/28 05:44:51;;;;;;;6.72;3.60;;;12.70;99.90;;;;;;5110822;28;20042;-70
2022/08/28 05:47:17;;;;;;;12.02;4.22;;;12.90;99.90;;;;;;5109962;28;20038;-68
2022/08/28 05:49:43;;;;;;;7.43;4.18;;;12.90;99.90;;;;;;5106372;28;20067;-68
2022/08/28 05:52:09;;;;;;;10.07;3.92;;;13.20;99.90;;;;;;5110072;28;20032;-70
2022/08/28 05:54:34;;;;;;;8.90;4.03;;;13.50;99.90;;;;;;5113322;27;20047;-69
2022/08/28 05:57:00;;;;;;;7.38;4.05;;;13.70;99.90;;;;;;5114116;28;20382;-69
2022/08/28 05:59:26;;;;;;;9.77;3.70;;;;;;;;;;5114737;28;20035;-72
2022/08/28 06:01:51;;;;;;;7.80;3.65;;;14.30;99.90;;;;;;5112292;27;20401;-71
2022/08/28 06:04:23;;;;;;;10.60;3.90;;;14.30;99.90;;;;;;5114756;28;20032;-71
2022/08/28 06:06:49;;;;;;;8.48;3.53;;;14.20;99.90;;;;;;5108281;28;20035;-71
2022/08/28 06:09:16;;;;;;;7.72;3.75;;;14.20;99.90;;;;;;5105558;27;20042;-70
2022/08/28 06:11:43;;;;;;;10.43;3.65;;;14.70;99.90;;;;;;5104326;27;20044;-71
2022/08/28 06:14:09;;;;;;;12.10;3.72;;;15.80;99.90;;;;;;5109225;28;20047;-72
2022/08/28 06:16:40;;;;;;;11.65;3.53;;;17.70;99.90;;;;;;5112494;28;20402;-71
2022/08/28 06:19:08;;;;;;;7.88;3.30;;;18.30;99.90;;;;;;5114333;28;20390;-70
2022/08/28 06:21:35;;;;;;;;;;;19.30;99.90;;;;;;5113831;28;20122;-71
2022/08/28 06:24:01;;;;;;;6.30;2.92;;;19.90;99.90;;;;;;5112651;27;20431;-69
2022/08/28 06:26:27;;;;;;;6.78;3.20;;;20.60;99.90;;;;;;5107959;28;20362;-68
2022/08/28 06:28:53;;;;;;;6.53;3.22;;;21.10;99.90;;;;;;5111648;28;20047;-69
2022/08/28 06:31:19;;;;;;;7.05;3.40;;;21.60;99.90;;;;;;5111557;28;20065;-69
2022/08/28 06:33:45;;;;;;;6.22;2.72;;;22.10;99.90;;;;;;5111558;28;20044;-71
2022/08/28 06:36:11;;;;;;;9.90;2.70;;;22.20;99.90;;;;;;5112549;28;20383;-75
2022/08/28 06:38:37;;;;;;;6.45;2.67;;;22.70;99.90;;;;;;5111469;27;20054;-72
2022/08/28 06:41:10;;;;;;;7.00;2.90;;;23.00;99.90;;;;;;5109288;27;20470;-72
2022/08/28 06:43:36;;;;;;;7.65;2.75;;;23.00;99.90;;;;;;5110682;28;20093;-75
2022/08/28 06:46:02;;;;;;;7.30;2.70;;;23.30;99.90;;;;;;5105139;28;20032;-72
2022/08/28 06:48:30;;;;;;;6.60;2.35;;;23.60;99.90;;;;;;5112353;28;20043;-72
2022/08/28 06:50:58;;;;;;;5.95;2.50;;;23.90;99.90;;;;;;5111774;28;20048;-70
2022/08/28 06:53:29;;;;;;;5.80;2.50;;;24.00;99.90;;;;;;5113207;28;20118;-71
2022/08/28 06:56:07;;;;;;;6.38;2.40;;;24.10;99.90;;;;;;5110366;27;20036;-71
2022/08/28 06:58:34;;;;;;;9.57;2.50;;;24.10;99.50;;;;;;5112037;27;20156;-71
2022/08/28 07:01:01;;;;;;;8.32;2.20;;;24.30;99.90;;;;;;5108902;27;20032;-70
2022/08/28 07:03:29;;;;;;;8.52;3.05;;;24.30;98.60;;;;;;5091062;28;20547;-70
2022/08/28 07:05:56;;;;;;;5.00;2.30;;;24.30;99.30;;;;;;5111872;27;20089;-68
2022/08/28 07:08:24;;;;;;;6.35;2.28;;;24.30;98.20;;;;;;5110818;28;20116;-71
2022/08/28 07:10:49;;;;;;;7.22;2.10;;;24.50;99.10;;;;;;5111032;28;20040;-71
2022/08/28 07:13:15;;;;;;;7.05;2.78;;;24.10;98.40;;;;;;5107640;27;20440;-72
2022/08/28 07:15:40;;;;;;;4.53;2.00;;;24.60;98.20;;;;;;5101972;27;20467;-71
2022/08/28 07:18:06;;;;;;;8.45;2.90;;;24.40;98.10;;;;;;5105978;27;20390;-71
2022/08/28 07:20:31;;;;;;;6.78;2.40;;;23.90;98.00;;;;;;5101350;28;20081;-71
2022/08/28 07:22:57;;;;;;;6.45;2.45;;;23.10;97.50;;;;;;5105532;27;20071;-72
2022/08/28 07:25:22;;;;;;;3.63;2.00;;;22.30;98.50;;;;;;5104310;27;20113;-71
2022/08/28 07:27:48;;;;;;;6.75;2.40;;;22.00;99.20;;;;;;5106357;27;20035;-72
2022/08/28 07:30:14;;;;;;;6.00;2.08;;;21.20;99.80;;;;;;5104210;28;20036;-74
2022/08/28 07:32:39;;;;;;;9.43;2.17;;;20.80;99.90;;;;;;5105616;27;20081;-72
2022/08/28 07:35:05;;;;;;;4.82;1.73;;;19.90;99.90;;;;;;5104822;27;20150;-73
2022/08/28 07:37:31;;;;;;;7.85;2.40;;;19.50;99.90;;;;;;5085385;28;20040;-72
2022/08/28 07:39:56;;;;;;;4.65;1.67;;;19.60;99.90;;;;;;5096827;27;20044;-76
2022/08/28 07:45:09;;;;;;;5.93;1.50;;;19.40;99.90;;;;;;5093372;28;20044;-74
2022/08/28 07:47:37;;;;;;;4.95;1.80;;;19.30;99.90;;;;;;5091557;28;20532;-74
2022/08/28 07:50:03;;;;;;;5.97;2.20;;;19.10;99.90;;;;;;5087457;28;20396;-74
2022/08/28 07:52:29;;;;;;;7.75;1.83;;;19.10;99.90;;;;;;5089074;28;20142;-75
2022/08/28 07:54:55;;;;;;;5.75;1.98;;;19.20;99.90;;;;;;5097155;28;20054;-75
2022/08/28 07:57:21;;;;;;;5.35;1.80;;;19.10;99.90;;;;;;5093260;28;20044;-72
2022/08/28 07:59:47;;;;;;;4.03;1.83;;;19.10;99.90;;;;;;5096521;28;20044;-74
2022/08/28 08:02:14;;;;;;;5.28;1.75;;;19.20;99.90;;;;;;5086763;28;20044;-74
2022/08/28 08:04:39;;;;;;;5.07;1.85;;;19.20;99.90;;;;;;5097837;28;20032;-76
2022/08/28 08:07:06;;;;;;;5.63;1.80;;;19.40;99.90;;;;;;5089697;28;20040;-73
2022/08/28 08:09:40;;;;;;;6.05;1.95;;;19.50;99.90;;;;;;5090046;28;20071;-73
2022/08/28 08:12:06;;;;;;;3.20;1.35;;;19.40;99.90;;;;;;5096576;28;20040;-72
2022/08/28 08:14:32;;;;;;;6.07;1.52;;;19.20;99.90;;;;;;5091626;28;20051;-72
2022/08/28 08:17:01;;;;;;;8.93;1.50;;;19.20;99.90;;;;;;5088598;28;20029;-72
2022/08/28 08:19:27;;;;;;;5.68;1.80;;;19.30;99.90;;;;;;5079676;28;20101;-70
2022/08/28 08:21:52;;;;;;;5.63;2.20;;;19.80;99.90;;;;;;5090161;28;20036;-71
2022/08/28 08:24:19;;;;;;;8.02;1.75;;;19.90;99.90;;;;;;5091962;28;20043;-70
2022/08/28 08:26:47;;;;;;;5.20;1.73;;;20.00;99.90;;;;;;5093518;28;20048;-74
2022/08/28 08:29:13;;;;;;;7.55;1.77;;;20.60;99.90;;;;;;5100167;28;20071;-71
2022/08/28 08:31:41;;;;;;;6.28;1.73;;;20.60;99.90;;;;;;5101036;28;20063;-74
2022/08/28 08:34:08;;;;;;;6.22;1.38;;;20.30;99.90;;;;;;5104384;28;20039;-71
2022/08/28 08:36:36;;;;;;;3.33;1.25;;;20.30;99.90;;;;;;5087713;28;20124;-75
2022/08/28 08:39:05;;;;;;;5.05;1.67;;;20.00;99.90;;;;;;5083112;28;20040;-73
2022/08/28 08:41:36;;;;;;;6.90;1.92;;;20.00;99.90;;;;;;5083083;28;20036;-72
2022/08/28 08:44:04;;;;;;;5.22;1.70;;;20.30;99.90;;;;;;5080179;28;20336;-72
2022/08/28 08:46:33;;;;;;;5.47;1.65;;;20.50;99.90;;;;;;5085220;28;20081;-72
2022/08/28 08:49:11;;;;;;;4.50;1.55;;;20.90;99.90;;;;;;5072724;28;20068;-72
2022/08/28 08:51:38;;;;;;;;;;;21.10;99.90;;;;;;5076229;28;20044;-72
2022/08/28 08:54:17;;;;;;;4.93;1.30;;;20.80;99.90;;;;;;5073446;28;19924;-71
2022/08/28 08:56:43;;;;;;;4.03;1.17;;;20.60;99.90;;;;;;5075813;28;20040;-72
2022/08/28 08:59:21;;;;;;;7.40;1.92;;;20.60;99.90;;;;;;5078840;28;20036;-71
2022/08/28 09:02:05;;;;;;;4.88;1.60;;;20.50;99.90;;;;;;5079144;28;20435;-72
2022/08/28 09:04:58;;;;;;;4.28;1.52;;;20.30;99.90;;;;;;5080212;28;20055;-72
2022/08/28 09:07:36;;;;;;;3.95;1.70;;;20.30;99.90;;;;;;5065529;28;20399;-71
2022/08/28 09:10:05;;;;;;;4.93;1.77;;;20.50;99.90;;;;;;5085377;28;20096;-72
2022/08/28 09:12:48;;;;;;;4.95;1.58;;;20.60;99.90;;;;;;5080187;28;20055;-72
2022/08/28 09:15:25;;;;;;;5.05;1.63;;;20.60;99.90;;;;;;5080134;28;20772;-72
2022/08/28 09:17:56;;;;;;;5.03;1.63;;;20.60;99.90;;;;;;5079546;28;20090;-72
2022/08/28 09:20:26;;;;;;;3.55;1.25;;;20.90;99.30;;;;;;5082460;28;20058;-71
2022/08/28 09:22:53;;;;;;;6.78;1.40;;;20.60;98.70;;;;;;5078310;28;20109;-72
2022/08/28 09:25:49;;;;;;;4.22;1.50;;;20.60;98.20;;;;;;5081781;28;21713;-71
2022/08/28 09:28:17;;;;;;;7.38;1.88;;;20.90;98.20;;;;;;5081648;28;20036;-72
2022/08/28 09:30:52;;;;;;;7.93;1.73;;;21.00;97.50;;;;;;5081097;28;20050;-71
2022/08/28 09:33:28;;;;;;;4.55;1.38;;;20.70;97.70;;;;;;5084423;28;20048;-71
2022/08/28 09:35:53;;;;;;;6.38;1.77;;;20.90;97.30;;;;;;5087793;28;20040;-71
2022/08/28 09:38:21;;;;;;;5.03;1.38;;;20.90;97.40;;;;;;5081391;28;20055;-71
2022/08/28 09:43:35;;;;;;;3.22;1.20;;;20.80;97.40;;;;;;5090523;28;20036;-72
2022/08/28 09:46:14;;;;;;;3.90;1.70;;;20.50;97.50;;;;;;5086908;28;20040;-71
2022/08/28 09:48:43;;;;;;;6.60;1.83;;;20.40;98.20;;;;;;5082522;28;20108;-72
2022/08/28 09:51:13;;;;;;;3.60;1.75;;;20.70;98.50;;;;;;5083883;28;20126;-72
2022/08/28 09:53:53;;;;;;;4.65;1.30;;;20.80;97.50;;;;;;5084974;28;20088;-72
2022/08/28 09:56:35;;;;;;;4.38;1.65;;;20.80;97.70;;;;;;5100785;28;20044;-71
2022/08/28 09:59:14;;;;;;;4.53;1.60;;;20.60;97.40;;;;;;5103110;28;20131;-71
2022/08/28 10:02:05;;;;;;;4.43;1.67;;;20.60;97.80;;;;;;5098041;28;20089;-71
2022/08/28 10:04:44;;;;;;;3.75;1.00;;;21.00;97.50;;;;;;5101828;28;20493;-71
2022/08/28 10:07:20;;;;;;;6.13;1.77;;;21.20;97.30;;;;;;5095938;28;20143;-71
2022/08/28 10:09:45;;;;;;;5.13;1.65;;;21.30;97.30;;;;;;5093121;28;20374;-72
2022/08/28 10:12:11;;;;;;;2.33;1.50;;;21.40;96.90;;;;;;5092716;28;21183;-71
2022/08/28 10:15:01;;;;;;;5.90;1.08;;;21.40;95.90;;;;;;5100804;28;20037;-72
2022/08/28 10:17:36;;;;;;;3.05;1.60;;;21.10;95.60;;;;;;5092233;28;20043;-72
2022/08/28 10:20:35;;;;;;;3.83;1.55;;;21.40;96.10;;;;;;5092600;28;20044;-70
2022/08/28 10:23:06;;;;;;;4.82;1.48;;;21.40;95.90;;;;;;5083945;28;20036;-71
2022/08/28 10:26:05;;;;;;;6.70;1.60;;;21.60;96.50;;;;;;5084900;28;20127;-71
2022/08/28 10:28:55;;;;;;;4.22;1.23;;;22.30;96.90;;;;;;5084371;28;20139;-72
2022/08/28 10:31:31;;;;;;;3.28;1.50;;;22.00;94.90;;;;;;5084908;28;20043;-71
2022/08/28 10:34:22;;;;;;;2.70;1.20;;;21.80;94.80;;;;;;5082431;28;20048;-72
2022/08/28 10:37:13;;;;;;;3.38;1.38;;;21.90;94.70;;;;;;5088063;28;20483;-72
2022/08/28 10:39:50;;;;;;;6.45;1.60;;;21.90;94.60;;;;;;5094024;28;20043;-72
2022/08/28 10:42:33;;;;;;;2.20;1.40;;;21.90;94.40;;;;;;5111896;28;20043;-72
2022/08/28 10:45:15;;;;;;;4.85;1.80;;;21.80;94.70;;;;;;5103893;27;20040;-72
2022/08/28 10:47:51;;;;;;;5.35;1.60;;;21.90;94.90;;;;;;5100434;28;20065;-69
2022/08/28 10:50:41;;;;;;;5.10;2.03;;;22.50;95.20;;;;;;5100527;27;20051;-69
2022/08/28 10:53:14;;;;;;;4.85;1.95;;;22.60;94.80;;;;;;5107863;28;20086;-69
2022/08/28 10:55:56;;;;;;;3.65;1.67;;;22.00;93.70;;;;;;5092918;28;20660;-69
2022/08/28 10:58:24;;;;;;;4.32;1.60;;;21.70;93.90;;;;;;5105739;28;20051;-70
2022/08/28 11:00:55;;;;;;;4.32;1.50;;;21.30;94.70;;;;;;5101991;28;20482;-69
2022/08/28 11:03:23;;;;;;;4.60;1.70;;;21.50;94.90;;;;;;5106645;28;20066;-70
2022/08/28 11:05:55;;;;;;;2.28;1.35;;;21.70;94.70;;;;;;5100883;28;20094;-70
2022/08/28 11:08:29;;;;;;;3.75;1.25;;;21.80;93.70;;;;;;5102348;27;20177;-70
2022/08/28 11:10:59;;;;;;;3.08;1.52;;;21.20;93.60;;;;;;5104747;28;20145;-69
2022/08/28 11:13:39;;;;;;;3.97;1.60;;;21.40;93.80;;;;;;5089290;28;20047;-70
2022/08/28 11:16:17;;;;;;;2.83;1.15;;;21.30;98.60;;;;;;5108395;28;20050;-70
2022/08/28 11:19:10;;;;;;;3.05;1.70;;;21.30;98.50;;;;;;5108133;28;20050;-71
2022/08/28 11:21:51;;;;;;;4.88;1.58;;;21.90;94.50;;;;;;5106513;28;20043;-73
2022/08/28 11:24:27;;;;;;;4.40;1.52;;;22.20;94.20;;;;;;5090950;28;20496;-70
2022/08/28 11:27:18;;;;;;;3.78;1.60;;;21.70;94.20;;;;;;5096092;28;20055;-70
2022/08/28 11:29:59;;;;;;;3.72;1.63;;;21.60;94.00;;;;;;5100790;28;20119;-70
2022/08/28 11:32:30;;;;;;;10.23;1.88;;;21.30;94.00;;;;;;5109767;28;20097;-70
2022/08/28 11:35:11;;;;;;;5.35;1.83;;;21.10;93.90;;;;;;5109886;28;20054;-70
2022/08/28 11:37:49;;;;;;;3.15;1.50;;;21.30;94.40;;;;;;5111282;28;20043;-70
2022/08/28 11:40:33;;;;;;;4.00;1.42;;;21.80;93.50;;;;;;5095719;28;20130;-70
2022/08/28 11:43:12;;;;;;;3.63;1.65;;;21.90;92.30;;;;;;5102577;28;20102;-70
2022/08/28 11:45:44;;;;;;;3.00;1.55;;;22.20;92.50;;;;;;5095936;28;20451;-70
2022/08/28 11:48:21;;;;;;;4.00;1.73;;;21.70;92.70;;;;;;5110878;28;20119;-70
2022/08/28 11:51:12;;;;;;;4.15;1.80;;;21.80;93.20;;;;;;5106458;28;20097;-71
2022/08/28 11:53:58;;;;;;;4.53;1.65;;;21.80;93.40;;;;;;5102521;27;20079;-70
2022/08/28 11:56:31;;;;;;;6.18;1.92;;;21.60;93.50;;;;;;5077353;27;20051;-71
2022/08/28 11:59:35;;;;;;;4.30;1.50;;;21.00;92.70;;;;;;5108015;28;20039;-68
2022/08/28 12:02:38;;;;;;;8.45;2.30;;;21.20;93.30;;;;;;5102775;28;20028;-70
2022/08/28 12:05:10;;;;;;;4.68;1.80;;;20.90;93.20;;;;;;5111307;28;20040;-71
2022/08/28 12:07:39;;;;;;;3.28;1.83;;;21.60;93.60;;;;;;5103245;28;20048;-70
2022/08/28 12:10:23;;;;;;;3.40;1.77;;;21.80;93.30;;;;;;5100551;27;20501;-70
2022/08/28 12:12:57;;;;;;;4.82;1.65;;;22.00;93.20;;;;;;5101786;28;20502;-70
2022/08/28 12:15:26;;;;;;;3.30;1.55;;;21.40;92.60;;;;;;5104402;28;20043;-70
2022/08/28 12:18:10;;;;;;;3.97;1.73;;;21.50;93.20;;;;;;5107185;28;20046;-71
2022/08/28 12:20:36;;;;;;;4.40;1.63;;;21.30;93.20;;;;;;5102862;28;20039;-68
2022/08/28 12:23:28;;;;;;;4.05;1.77;;;21.30;93.70;;;;;;5106171;28;20040;-70
2022/08/28 12:26:21;;;;;;;3.00;1.73;;;21.00;93.90;;;;;;5103912;28;20039;-70
2022/08/28 12:28:51;;;;;;;4.78;1.80;;;21.10;94.60;;;;;;5103203;28;20075;-70
2022/08/28 12:34:28;;;;;;;5.18;1.77;;;22.10;94.40;;;;;;5108031;28;20147;-71
2022/08/28 12:36:56;;;;;;;5.20;1.70;;;22.80;93.60;;;;;;5106054;28;20059;-70
2022/08/28 12:39:22;;;;;;;3.10;1.48;;;22.60;92.90;;;;;;5100735;28;20475;-70
2022/08/28 12:41:47;;;;;;;3.60;1.95;;;22.10;92.50;;;;;;5104646;28;20055;-69
2022/08/28 12:44:14;;;;;;;4.63;1.77;;;22.10;92.90;;;;;;5102536;28;20078;-69
2022/08/28 12:46:42;;;;;;;3.83;1.88;;;21.80;93.20;;;;;;5101349;28;20498;-69
2022/08/28 12:49:32;;;;;;;4.28;1.45;;;22.10;93.00;;;;;;5102488;28;20518;-70
2022/08/28 12:52:09;;;;;;;3.05;1.55;;;21.70;92.60;;;;;;5090212;28;20051;-69
2022/08/28 12:54:35;;;;;;;4.82;1.90;;;21.80;92.50;;;;;;5101378;28;20434;-68
2022/08/28 12:57:13;;;;;;;3.28;1.60;;;22.20;92.80;;;;;;5105072;28;20035;-68
2022/08/28 12:59:51;;;;;;;2.70;1.17;;;22.40;91.70;;;;;;5105954;28;20081;-69
2022/08/28 13:02:27;;;;;;;3.13;1.67;;;22.10;90.30;;;;;;5109748;28;20088;-69
2022/08/28 13:04:58;;;;;;;2.80;1.50;;;22.20;90.00;;;;;;5092399;28;20471;-68
2022/08/28 13:07:30;;;;;;;3.13;1.42;;;22.50;90.60;;;;;;5098672;28;20075;-71
2022/08/28 13:10:00;;;;;;;3.22;1.75;;;22.80;90.00;;;;;;5101311;28;20367;-71
2022/08/28 13:12:33;;;;;;;4.25;1.65;;;22.70;89.90;;;;;;5105320;28;20049;-71
2022/08/28 13:15:00;;;;;;;3.83;1.80;;;22.30;88.50;;;;;;5096455;28;20044;-72